createdAt,value
2024-03-10T00:00:27.093Z,50.86
2024-03-10T00:03:15.314Z,50.93
2024-03-10T00:05:43.340Z,50.83
2024-03-10T00:08:11.302Z,50.89
2024-03-10T00:10:42.615Z,50.80
2024-03-10T00:13:11.149Z,50.77
2024-03-10T00:15:39.123Z,50.90
2024-03-10T00:18:09.661Z,50.86
2024-03-10T00:20:37.792Z,50.91
2024-03-10T00:23:07.253Z,51.07
2024-03-10T00:25:36.362Z,51.20
2024-03-10T00:28:04.988Z,51.18
2024-03-10T00:30:34.783Z,51.44
2024-03-10T00:33:02.818Z,51.41
2024-03-10T00:35:30.984Z,51.49
2024-03-10T00:37:59.100Z,51.48
2024-03-10T00:40:27.770Z,51.49
2024-03-10T00:42:55.647Z,51.57
2024-03-10T00:45:26.384Z,51.58
2024-03-10T00:47:56.190Z,51.59
2024-03-10T00:50:24.226Z,51.52
2024-03-10T00:52:52.569Z,51.66
2024-03-10T00:55:20.589Z,51.72
2024-03-10T00:57:48.810Z,51.75
2024-03-10T01:00:17.038Z,51.72
2024-03-10T01:02:49.040Z,51.89
2024-03-10T01:05:17.426Z,51.89
2024-03-10T01:07:45.417Z,51.96
2024-03-10T01:10:13.432Z,51.83
2024-03-10T01:12:41.520Z,51.97
2024-03-10T01:15:09.780Z,52.04
2024-03-10T01:17:38.921Z,52.12
2024-03-10T01:20:08.078Z,52.08
2024-03-10T01:22:36.233Z,52.16
2024-03-10T01:25:05.915Z,52.17
2024-03-10T01:27:34.043Z,52.26
2024-03-10T01:30:02.287Z,52.33
2024-03-10T01:32:31.166Z,52.33
2024-03-10T01:34:59.220Z,52.42
2024-03-10T01:37:27.295Z,52.42
2024-03-10T01:39:55.276Z,52.29
2024-03-10T01:42:23.180Z,52.44
2024-03-10T01:44:51.274Z,52.57
2024-03-10T01:47:19.277Z,52.41
2024-03-10T01:49:47.666Z,52.51
2024-03-10T01:52:15.758Z,52.63
2024-03-10T01:54:44.526Z,52.76
2024-03-10T01:57:12.643Z,52.89
2024-03-10T01:59:40.757Z,53.04
2024-03-10T02:02:08.946Z,53.06
2024-03-10T02:04:39.188Z,53.37
2024-03-10T02:07:07.582Z,53.24
2024-03-10T02:09:37.210Z,53.48
2024-03-10T02:12:07.106Z,53.52
2024-03-10T02:14:35.308Z,53.70
2024-03-10T02:17:03.504Z,53.74
2024-03-10T02:19:31.598Z,53.62
2024-03-10T02:21:59.629Z,53.67
2024-03-10T02:24:38.153Z,53.74
2024-03-10T02:27:07.092Z,53.70
2024-03-10T02:29:51.199Z,53.64
2024-03-10T02:32:38.138Z,53.75
2024-03-10T02:35:26.154Z,53.89
2024-03-10T02:38:12.886Z,53.87
2024-03-10T02:40:59.667Z,53.88
2024-03-10T02:43:46.095Z,53.84
2024-03-10T02:46:32.834Z,53.91
2024-03-10T02:49:00.844Z,53.97
2024-03-10T02:51:28.767Z,54.09
2024-03-10T02:53:56.758Z,53.88
2024-03-10T02:56:25.053Z,53.94
2024-03-10T02:58:53.034Z,53.96
2024-03-10T03:01:22.775Z,54.00
2024-03-10T03:03:53.197Z,53.94
2024-03-10T03:06:23.886Z,54.05
2024-03-10T03:08:51.942Z,54.16
2024-03-10T03:11:19.980Z,54.29
2024-03-10T03:13:49.076Z,54.23
2024-03-10T03:16:17.049Z,54.15
2024-03-10T03:18:46.482Z,54.18
2024-03-10T03:21:14.890Z,54.27
2024-03-10T03:23:42.892Z,54.35
2024-03-10T03:26:10.773Z,54.48
2024-03-10T03:28:38.887Z,54.45
2024-03-10T03:31:07.012Z,54.51
2024-03-10T03:33:34.931Z,54.65
2024-03-10T03:36:03.613Z,54.57
2024-03-10T03:38:31.862Z,54.57
2024-03-10T03:40:59.884Z,54.66
2024-03-10T03:43:27.805Z,54.88
2024-03-10T03:45:55.731Z,54.82
2024-03-10T03:48:23.703Z,54.89
2024-03-10T03:50:51.929Z,54.93
2024-03-10T03:53:20.011Z,54.94
2024-03-10T03:55:48.204Z,54.84
2024-03-10T03:58:16.292Z,54.88
2024-03-10T04:00:44.427Z,54.80
2024-03-10T04:03:12.385Z,54.93
2024-03-10T04:05:42.220Z,54.89
2024-03-10T04:08:12.935Z,55.00
2024-03-10T04:10:41.145Z,54.99
2024-03-10T04:13:09.156Z,55.12
2024-03-10T04:15:37.157Z,54.95
2024-03-10T04:18:06.337Z,54.87
2024-03-10T04:20:36.385Z,54.86
2024-03-10T04:23:06.820Z,54.87
2024-03-10T04:25:35.668Z,54.89
2024-03-10T04:28:03.986Z,54.76
2024-03-10T04:30:32.595Z,54.79
2024-03-10T04:33:00.659Z,54.70
2024-03-10T04:35:29.749Z,54.80
2024-03-10T04:37:57.960Z,54.70
2024-03-10T04:40:25.822Z,54.83
2024-03-10T04:42:53.694Z,54.77
2024-03-10T04:45:22.216Z,54.74
2024-03-10T04:47:50.136Z,54.81
2024-03-10T04:50:20.145Z,54.65
2024-03-10T04:52:48.210Z,54.78
2024-03-10T04:55:16.705Z,54.84
2024-03-10T04:57:44.606Z,54.79
2024-03-10T05:00:17.290Z,54.88
2024-03-10T05:02:46.406Z,54.86
2024-03-10T05:05:17.275Z,54.93
2024-03-10T05:07:52.426Z,55.20
2024-03-10T05:10:20.918Z,55.28
2024-03-10T05:12:49.057Z,55.41
2024-03-10T05:15:17.035Z,55.29
2024-03-10T05:17:45.034Z,55.45
2024-03-10T05:20:16.334Z,55.33
2024-03-10T05:22:45.087Z,55.36
2024-03-10T05:25:13.143Z,55.54
2024-03-10T05:27:42.940Z,55.54
2024-03-10T05:30:11.466Z,55.57
2024-03-10T05:32:39.548Z,55.29
2024-03-10T05:35:07.951Z,55.28
2024-03-10T05:37:37.464Z,55.28
2024-03-10T05:40:08.767Z,55.33
2024-03-10T05:42:36.641Z,55.54
2024-03-10T05:45:05.709Z,55.38
2024-03-10T05:47:34.361Z,55.47
2024-03-10T05:50:03.622Z,55.51
2024-03-10T05:52:31.671Z,55.55
2024-03-10T05:54:59.738Z,55.59
2024-03-10T05:57:31.197Z,55.60
2024-03-10T05:59:59.607Z,55.55
2024-03-10T06:02:27.742Z,55.45
2024-03-10T06:04:56.254Z,55.39
2024-03-10T06:07:24.167Z,55.22
2024-03-10T06:09:52.159Z,55.21
2024-03-10T06:12:20.123Z,55.21
2024-03-10T06:14:48.025Z,55.09
2024-03-10T06:17:15.973Z,55.18
2024-03-10T06:20:02.673Z,55.18
2024-03-10T06:22:49.783Z,55.28
2024-03-10T06:25:24.345Z,55.09
2024-03-10T06:27:53.220Z,55.09
2024-03-10T06:30:21.454Z,54.82
2024-03-10T06:32:51.552Z,54.78
2024-03-10T06:35:20.655Z,54.66
2024-03-10T06:37:49.821Z,54.61
2024-03-10T06:40:18.044Z,54.55
2024-03-10T06:42:48.939Z,54.36
2024-03-10T06:45:16.850Z,54.32
2024-03-10T06:47:45.006Z,54.15
2024-03-10T06:50:14.585Z,54.06
2024-03-10T06:52:46.574Z,54.06
2024-03-10T06:55:16.219Z,54.00
2024-03-10T06:57:44.186Z,54.01
2024-03-10T07:00:14.294Z,53.88
2024-03-10T07:02:47.129Z,53.71
2024-03-10T07:05:16.731Z,53.33
2024-03-10T07:07:44.957Z,52.89
2024-03-10T07:10:14.844Z,52.70
2024-03-10T07:12:43.154Z,52.46
2024-03-10T07:15:11.442Z,52.23
2024-03-10T07:17:41.410Z,52.10
2024-03-10T07:20:11.359Z,51.95
2024-03-10T07:22:39.640Z,51.61
2024-03-10T07:25:09.516Z,51.35
2024-03-10T07:27:37.709Z,51.09
2024-03-10T07:30:06.289Z,50.74
2024-03-10T07:32:34.467Z,50.13
2024-03-10T07:35:03.814Z,50.18
2024-03-10T07:37:31.967Z,50.04
2024-03-10T07:39:59.863Z,49.75
2024-03-10T07:42:27.819Z,49.29
2024-03-10T07:44:56.895Z,49.31
2024-03-10T07:47:24.851Z,49.06
2024-03-10T07:49:52.957Z,48.64
2024-03-10T07:52:20.886Z,46.97
2024-03-10T07:54:48.780Z,45.55
2024-03-10T07:57:16.792Z,44.74
2024-03-10T07:59:44.659Z,44.00
2024-03-10T08:02:16.563Z,43.59
2024-03-10T08:04:46.492Z,42.49
2024-03-10T08:07:14.374Z,42.11
2024-03-10T08:09:42.554Z,41.92
2024-03-10T08:12:12.428Z,41.05
2024-03-10T08:14:41.060Z,40.78
2024-03-10T08:17:09.318Z,40.44
2024-03-10T08:19:37.980Z,39.79
2024-03-10T08:22:07.273Z,39.11
2024-03-10T08:24:35.278Z,39.08
2024-03-10T08:27:03.420Z,38.35
2024-03-10T08:29:31.548Z,38.39
2024-03-10T08:31:59.574Z,37.82
2024-03-10T08:34:29.113Z,37.47
2024-03-10T08:36:57.086Z,35.94
2024-03-10T08:39:26.186Z,35.45
2024-03-10T08:41:54.084Z,34.49
2024-03-10T08:44:23.765Z,34.11
2024-03-10T08:46:51.910Z,34.12
2024-03-10T08:49:19.947Z,34.12
2024-03-10T08:51:48.082Z,33.97
2024-03-10T08:54:16.694Z,34.31
2024-03-10T08:56:45.108Z,34.36
2024-03-10T08:59:17.360Z,34.95
2024-03-10T09:01:45.338Z,35.62
2024-03-10T09:04:13.273Z,36.29
2024-03-10T09:06:42.103Z,36.85
2024-03-10T09:09:10.112Z,37.47
2024-03-10T09:11:38.225Z,38.13
2024-03-10T09:14:09.159Z,38.58
2024-03-10T09:16:37.153Z,38.93
2024-03-10T09:19:09.084Z,39.10
2024-03-10T09:21:38.048Z,39.62
2024-03-10T09:24:06.233Z,40.06
2024-03-10T09:26:34.373Z,40.40
2024-03-10T09:29:02.488Z,40.50
2024-03-10T09:31:31.960Z,40.79
2024-03-10T09:34:01.056Z,40.93
2024-03-10T09:36:29.854Z,41.43
2024-03-10T09:38:59.017Z,41.79
2024-03-10T09:41:32.739Z,42.03
2024-03-10T09:44:02.143Z,42.50
2024-03-10T09:46:31.674Z,42.77
2024-03-10T09:49:03.145Z,42.98
2024-03-10T09:51:35.193Z,43.02
2024-03-10T09:54:03.972Z,43.64
2024-03-10T09:56:32.169Z,43.66
2024-03-10T09:59:07.110Z,43.84
2024-03-10T10:01:37.180Z,43.89
2024-03-10T10:04:09.061Z,44.06
2024-03-10T10:06:40.624Z,44.14
2024-03-10T10:09:12.032Z,44.14
2024-03-10T10:11:40.523Z,43.97
2024-03-10T10:14:17.069Z,44.02
2024-03-10T10:17:00.392Z,43.99
2024-03-10T10:19:30.988Z,43.66
2024-03-10T10:21:59.808Z,42.92
2024-03-10T10:24:28.343Z,41.81
2024-03-10T10:27:06.038Z,41.29
2024-03-10T10:29:50.628Z,40.89
2024-03-10T10:32:23.755Z,40.89
2024-03-10T10:34:53.647Z,40.73
2024-03-10T10:37:22.411Z,40.39
2024-03-10T10:39:50.521Z,40.14
2024-03-10T10:42:29.744Z,39.94
2024-03-10T10:45:03.033Z,39.66
2024-03-10T10:47:35.337Z,40.16
2024-03-10T10:50:15.844Z,40.30
2024-03-10T10:52:44.892Z,40.58
2024-03-10T10:55:13.573Z,40.74
2024-03-10T10:57:45.885Z,40.92
2024-03-10T11:00:30.467Z,41.09
2024-03-10T11:03:18.884Z,41.29
2024-03-10T11:06:03.375Z,41.60
2024-03-10T11:08:38.512Z,41.92
2024-03-10T11:11:07.153Z,42.07
2024-03-10T11:13:39.499Z,42.07
2024-03-10T11:16:13.051Z,42.12
2024-03-10T11:18:43.243Z,42.03
2024-03-10T11:21:21.692Z,42.04
2024-03-10T11:23:52.811Z,42.00
2024-03-10T11:26:25.539Z,42.17
2024-03-10T11:28:58.054Z,42.29
2024-03-10T11:31:28.692Z,42.17
2024-03-10T11:33:58.105Z,41.96
2024-03-10T11:36:33.906Z,41.90
2024-03-10T11:39:25.490Z,42.08
2024-03-10T11:41:53.524Z,42.18
2024-03-10T11:44:24.317Z,42.05
2024-03-10T11:46:53.219Z,42.03
2024-03-10T11:49:21.281Z,42.12
2024-03-10T11:51:50.891Z,41.87
2024-03-10T11:54:20.332Z,41.57
2024-03-10T11:56:52.654Z,41.36
2024-03-10T11:59:21.151Z,41.17
2024-03-10T12:01:49.352Z,41.17
2024-03-10T12:04:18.438Z,41.36
2024-03-10T12:06:47.810Z,41.25
2024-03-10T12:09:22.002Z,41.22
2024-03-10T12:11:51.520Z,41.20
2024-03-10T12:14:20.783Z,41.51
2024-03-10T12:16:51.996Z,41.73
2024-03-10T12:19:21.823Z,41.71
2024-03-10T12:21:50.498Z,41.61
2024-03-10T12:24:19.491Z,41.64
2024-03-10T12:26:47.614Z,41.59
2024-03-10T12:29:21.481Z,41.65
2024-03-10T12:31:51.423Z,41.43
2024-03-10T12:34:20.624Z,41.15
2024-03-10T12:36:49.706Z,41.08
2024-03-10T12:39:17.987Z,41.02
2024-03-10T12:41:46.507Z,41.13
2024-03-10T12:44:15.057Z,41.25
2024-03-10T12:46:43.718Z,41.35
2024-03-10T12:49:11.867Z,41.53
2024-03-10T12:51:40.885Z,41.75
2024-03-10T12:54:09.152Z,41.74
2024-03-10T12:56:37.417Z,41.75
2024-03-10T12:59:05.845Z,41.68
2024-03-10T13:01:35.352Z,41.54
2024-03-10T13:04:03.486Z,41.47
2024-03-10T13:06:31.869Z,41.20
2024-03-10T13:09:00.488Z,41.06
2024-03-10T13:11:32.053Z,41.08
2024-03-10T13:14:00.911Z,40.58
2024-03-10T13:16:28.949Z,40.04
2024-03-10T13:18:59.715Z,39.68
2024-03-10T13:21:28.388Z,39.42
2024-03-10T13:23:56.386Z,39.10
2024-03-10T13:26:24.338Z,38.94
2024-03-10T13:28:52.663Z,38.41
2024-03-10T13:31:20.973Z,37.96
2024-03-10T13:33:50.587Z,37.64
2024-03-10T13:36:18.857Z,37.78
2024-03-10T13:38:49.056Z,37.95
2024-03-10T13:41:17.444Z,37.89
2024-03-10T13:43:46.146Z,37.87
2024-03-10T13:46:15.795Z,38.00
2024-03-10T13:48:43.850Z,38.11
2024-03-10T13:51:12.100Z,38.28
2024-03-10T13:53:40.166Z,38.53
2024-03-10T13:56:08.258Z,38.69
2024-03-10T13:58:38.050Z,39.05
2024-03-10T14:01:07.064Z,39.34
2024-03-10T14:03:36.887Z,39.45
2024-03-10T14:06:04.975Z,39.54
2024-03-10T14:08:33.436Z,39.64
2024-03-10T14:11:01.492Z,39.59
2024-03-10T14:13:30.280Z,39.89
2024-03-10T14:15:58.857Z,39.83
2024-03-10T14:18:30.286Z,39.85
2024-03-10T14:20:58.488Z,39.82
2024-03-10T14:23:26.504Z,39.99
2024-03-10T14:25:54.925Z,40.00
2024-03-10T14:28:23.116Z,40.35
2024-03-10T14:30:51.177Z,40.62
2024-03-10T14:33:19.484Z,40.89
2024-03-10T14:35:48.101Z,41.19
2024-03-10T14:38:16.210Z,41.41
2024-03-10T14:40:44.267Z,41.66
2024-03-10T14:43:13.602Z,42.12
2024-03-10T14:45:41.736Z,42.13
2024-03-10T14:48:10.038Z,42.51
2024-03-10T14:50:39.103Z,42.59
2024-03-10T14:53:07.427Z,42.83
2024-03-10T14:55:36.035Z,43.11
2024-03-10T14:58:05.913Z,43.15
2024-03-10T15:00:35.844Z,43.36
2024-03-10T15:03:09.509Z,43.48
2024-03-10T15:05:41.263Z,43.63
2024-03-10T15:08:12.887Z,43.78
2024-03-10T15:10:43.004Z,43.97
2024-03-10T15:13:11.328Z,43.95
2024-03-10T15:15:40.355Z,44.16
2024-03-10T15:18:14.450Z,44.38
2024-03-10T15:20:48.395Z,44.40
2024-03-10T15:23:18.709Z,44.82
2024-03-10T15:25:48.749Z,44.95
2024-03-10T15:28:17.442Z,45.14
2024-03-10T15:30:45.646Z,45.41
2024-03-10T15:33:15.424Z,45.60
2024-03-10T15:35:43.564Z,45.72
2024-03-10T15:38:15.327Z,46.02
2024-03-10T15:40:44.413Z,46.15
2024-03-10T15:43:14.462Z,46.35
2024-03-10T15:45:43.961Z,46.61
2024-03-10T15:48:12.867Z,46.87
2024-03-10T15:50:41.293Z,46.89
2024-03-10T15:53:11.757Z,47.27
2024-03-10T15:55:40.468Z,47.41
2024-03-10T15:58:09.201Z,47.61
2024-03-10T16:00:38.253Z,47.54
2024-03-10T16:03:16.353Z,47.94
2024-03-10T16:05:48.879Z,48.01
2024-03-10T16:08:20.490Z,48.25
2024-03-10T16:10:50.458Z,48.35
2024-03-10T16:13:27.079Z,48.55
2024-03-10T16:15:55.704Z,48.47
2024-03-10T16:18:29.204Z,48.78
2024-03-10T16:21:00.250Z,49.02
2024-03-10T16:23:29.359Z,49.05
2024-03-10T16:25:57.700Z,49.04
2024-03-10T16:28:26.524Z,49.20
2024-03-10T16:30:54.528Z,49.31
2024-03-10T16:33:22.499Z,49.48
2024-03-10T16:35:50.612Z,49.51
2024-03-10T16:38:19.320Z,49.60
2024-03-10T16:40:47.897Z,49.72
2024-03-10T16:43:18.055Z,50.05
2024-03-10T16:45:49.491Z,50.07
2024-03-10T16:48:18.365Z,50.17
2024-03-10T16:50:47.363Z,50.33
2024-03-10T16:53:16.562Z,50.35
2024-03-10T16:55:48.437Z,50.62
2024-03-10T16:58:20.733Z,50.63
2024-03-10T17:00:50.211Z,50.85
2024-03-10T17:03:18.458Z,50.81
2024-03-10T17:05:46.511Z,51.01
2024-03-10T17:08:17.120Z,51.11
2024-03-10T17:10:48.513Z,51.48
2024-03-10T17:13:19.118Z,51.78
2024-03-10T17:15:48.152Z,51.98
2024-03-10T17:18:17.148Z,51.86
2024-03-10T17:20:45.462Z,51.87
2024-03-10T17:23:14.330Z,52.10
2024-03-10T17:25:42.689Z,52.36
2024-03-10T17:28:10.779Z,52.40
2024-03-10T17:30:38.894Z,52.75
2024-03-10T17:33:07.211Z,52.99
2024-03-10T17:35:35.667Z,53.29
2024-03-10T17:38:05.715Z,53.30
2024-03-10T17:40:33.879Z,53.54
2024-03-10T17:43:01.917Z,53.78
2024-03-10T17:45:29.916Z,54.30
2024-03-10T17:47:58.144Z,54.22
2024-03-10T17:50:26.449Z,54.03
2024-03-10T17:52:54.540Z,54.04
2024-03-10T17:55:22.713Z,54.39
2024-03-10T17:57:51.266Z,54.57
2024-03-10T18:00:23.872Z,54.78
2024-03-10T18:02:52.235Z,55.17
2024-03-10T18:05:23.790Z,55.30
2024-03-10T18:07:53.317Z,55.57
2024-03-10T18:10:22.764Z,55.69
2024-03-10T18:12:52.725Z,55.86
2024-03-10T18:15:22.006Z,55.98
2024-03-10T18:17:50.380Z,56.07
2024-03-10T18:20:21.262Z,56.12
2024-03-10T18:22:49.801Z,56.08
2024-03-10T18:25:18.101Z,56.48
2024-03-10T18:27:46.135Z,56.82
2024-03-10T18:30:15.692Z,56.98
2024-03-10T18:32:44.358Z,57.11
2024-03-10T18:35:13.576Z,57.59
2024-03-10T18:37:42.153Z,57.77
2024-03-10T18:40:13.816Z,58.05
2024-03-10T18:42:42.147Z,58.12
2024-03-10T18:45:10.774Z,58.26
2024-03-10T18:47:38.959Z,58.49
2024-03-10T18:50:11.734Z,58.58
2024-03-10T18:52:43.940Z,58.85
2024-03-10T18:55:14.428Z,59.01
2024-03-10T18:57:42.704Z,59.13
2024-03-10T19:00:13.640Z,59.24
2024-03-10T19:02:42.939Z,59.24
2024-03-10T19:05:13.194Z,59.50
2024-03-10T19:07:42.368Z,59.68
2024-03-10T19:10:11.630Z,59.84
2024-03-10T19:12:41.572Z,60.05
2024-03-10T19:15:10.088Z,60.12
2024-03-10T19:17:40.295Z,60.17
2024-03-10T19:20:15.260Z,60.73
2024-03-10T19:22:51.892Z,60.59
2024-03-10T19:25:20.102Z,60.79
2024-03-10T19:27:49.265Z,61.07
2024-03-10T19:30:19.308Z,61.26
2024-03-10T19:32:48.545Z,61.54
2024-03-10T19:35:18.076Z,61.95
2024-03-10T19:37:47.095Z,62.17
2024-03-10T19:40:23.989Z,62.24
2024-03-10T19:42:54.644Z,63.15
2024-03-10T19:45:23.573Z,63.23
2024-03-10T19:47:51.772Z,63.52
2024-03-10T19:50:21.359Z,63.86
2024-03-10T19:52:51.061Z,64.47
2024-03-10T19:55:19.552Z,64.97
2024-03-10T19:57:47.969Z,65.26
2024-03-10T20:00:16.880Z,65.47
2024-03-10T20:02:47.057Z,65.61
2024-03-10T20:05:16.236Z,66.02
2024-03-10T20:07:50.277Z,66.37
2024-03-10T20:10:21.687Z,66.46
2024-03-10T20:12:51.509Z,66.42
2024-03-10T20:15:19.872Z,66.52
2024-03-10T20:17:50.579Z,66.60
2024-03-10T20:20:27.035Z,66.58
2024-03-10T20:22:56.360Z,66.56
2024-03-10T20:25:26.140Z,66.68
2024-03-10T20:27:58.907Z,66.71
2024-03-10T20:30:31.315Z,66.66
2024-03-10T20:33:00.050Z,66.67
2024-03-10T20:35:28.340Z,66.59
2024-03-10T20:37:56.918Z,66.63
2024-03-10T20:40:25.099Z,66.80
2024-03-10T20:42:53.092Z,66.94
2024-03-10T20:45:21.111Z,66.92
2024-03-10T20:47:50.247Z,66.96
2024-03-10T20:50:24.728Z,67.05
2024-03-10T20:52:54.272Z,67.25
2024-03-10T20:55:22.823Z,67.25
2024-03-10T20:57:51.237Z,67.33
2024-03-10T21:00:20.932Z,67.41
2024-03-10T21:02:50.332Z,67.35
2024-03-10T21:05:18.836Z,67.20
2024-03-10T21:07:46.912Z,67.21
2024-03-10T21:10:16.770Z,67.11
2024-03-10T21:12:47.267Z,67.13
2024-03-10T21:15:18.877Z,67.13
2024-03-10T21:17:47.014Z,67.30
2024-03-10T21:20:15.618Z,67.48
2024-03-10T21:22:43.629Z,67.41
2024-03-10T21:25:11.493Z,67.38
2024-03-10T21:27:40.829Z,67.44
2024-03-10T21:30:08.954Z,67.49
2024-03-10T21:32:37.213Z,67.70
2024-03-10T21:35:08.566Z,67.97
2024-03-10T21:37:38.853Z,67.71
2024-03-10T21:40:11.825Z,67.51
2024-03-10T21:42:40.945Z,67.29
2024-03-10T21:45:09.878Z,67.27
2024-03-10T21:47:41.780Z,67.29
2024-03-10T21:50:15.951Z,67.30
2024-03-10T21:52:45.801Z,67.37
2024-03-10T21:55:14.287Z,67.71
2024-03-10T21:57:42.708Z,67.85
2024-03-10T22:00:18.257Z,67.73
2024-03-10T22:02:49.497Z,67.75
2024-03-10T22:05:18.962Z,67.74
2024-03-10T22:07:47.346Z,67.71
2024-03-10T22:10:17.281Z,67.84
2024-03-10T22:12:46.694Z,67.82
2024-03-10T22:15:16.308Z,67.86
2024-03-10T22:17:53.739Z,67.81
2024-03-10T22:20:27.739Z,67.85
2024-03-10T22:22:56.957Z,67.89
2024-03-10T22:25:27.045Z,68.13
2024-03-10T22:27:55.897Z,68.07
2024-03-10T22:30:31.213Z,68.16
2024-03-10T22:32:59.972Z,68.09
2024-03-10T22:35:28.393Z,68.12
2024-03-10T22:37:59.708Z,68.11
2024-03-10T22:40:32.685Z,68.12
2024-03-10T22:43:00.877Z,68.20
2024-03-10T22:45:31.846Z,68.18
2024-03-10T22:48:05.952Z,68.19
2024-03-10T22:50:36.421Z,68.36
2024-03-10T22:53:07.571Z,68.45
2024-03-10T22:55:36.106Z,68.51
2024-03-10T22:58:05.783Z,68.66
2024-03-10T23:00:38.680Z,68.70
2024-03-10T23:03:08.666Z,68.84
2024-03-10T23:05:37.732Z,68.98
2024-03-10T23:08:06.813Z,68.84
2024-03-10T23:10:43.479Z,68.80
2024-03-10T23:13:11.774Z,68.78
2024-03-10T23:15:40.951Z,68.96
2024-03-10T23:18:09.429Z,68.96
2024-03-10T23:20:37.616Z,68.91
2024-03-10T23:23:05.905Z,68.82
2024-03-10T23:25:33.967Z,68.95
2024-03-10T23:28:03.112Z,68.98
2024-03-10T23:30:31.073Z,69.22
2024-03-10T23:32:59.163Z,69.30
2024-03-10T23:35:27.461Z,69.13
2024-03-10T23:37:55.424Z,69.19
2024-03-10T23:40:26.503Z,69.25
2024-03-10T23:42:56.903Z,69.18
2024-03-10T23:45:24.865Z,69.24
2024-03-10T23:47:53.083Z,69.28
2024-03-10T23:50:24.920Z,69.42
2024-03-10T23:52:54.657Z,69.23
2024-03-10T23:55:36.087Z,69.22
2024-03-10T23:58:04.217Z,69.20
